Terminal Aerodrome Forecast
Issued by NWS Chicago, IL

Home | Current Version | Previous Version | Text Only | Print | Product List | Glossary On
Versions: 1 2 3 4 5 6 7 8 9 10 11 12 13 14 15 16 17 18 19 20 21 22 23 24
000
FTUS43 KLOT 251737
TAFRFD
TAF
KRFD 251737Z 2518/2618 16012G17KT P6SM SCT040 BKN250
     FM252100 17011G16KT P6SM VCSH SCT040 BKN200
      TEMPO 2522/2601 4SM TSRA SCT030 OVC040CB
     FM260100 18008KT 6SM BR SCT025 BKN120 BKN250 PROB30 2609/2613
      5SM -TSRA BR OVC040CB
     FM261500 22012G17KT P6SM SCT035 BKN250=

USA.gov is the U.S. government's official web portal to all federal, state and local government web resources and services.